createdAt,value
2023-11-02T00:03:57.967Z,99659.63
2023-11-02T00:07:47.889Z,99655.36
2023-11-02T00:23:06.827Z,99650.33
2023-11-02T00:26:56.795Z,99651.81
2023-11-02T00:30:40.257Z,99644.80
2023-11-02T00:34:31.356Z,99644.20
2023-11-02T00:38:21.227Z,99648.17
2023-11-02T01:01:30.969Z,99629.56
2023-11-02T01:05:35.709Z,99624.79
2023-11-02T01:09:26.160Z,99619.70
2023-11-02T01:13:16.584Z,99606.49
2023-11-02T01:17:17.156Z,99603.48
2023-11-02T01:21:22.434Z,99605.10
2023-11-02T02:16:47.744Z,99576.44
2023-11-02T02:20:38.313Z,99574.95
2023-11-02T02:24:28.732Z,99568.98
2023-11-02T02:28:52.305Z,99561.35
2023-11-02T02:32:41.627Z,99553.61
2023-11-02T02:36:46.775Z,99553.81
2023-11-02T02:40:41.438Z,99546.54
2023-11-02T02:44:30.382Z,99541.42
2023-11-02T02:48:25.837Z,99547.65
2023-11-02T02:52:17.132Z,99545.42
2023-11-02T02:56:08.073Z,99539.10
2023-11-02T03:15:22.793Z,99535.20
2023-11-02T03:19:13.100Z,99536.46
2023-11-02T03:23:03.801Z,99535.88
2023-11-02T03:26:55.327Z,99530.31
2023-11-02T03:30:45.565Z,99525.94
2023-11-02T03:34:57.315Z,99516.91
2023-11-02T03:38:52.362Z,99514.95
2023-11-02T03:42:42.836Z,99512.66
2023-11-02T03:46:38.251Z,99514.95
2023-11-02T03:50:36.124Z,99515.83
2023-11-02T03:54:26.651Z,99513.25
2023-11-02T03:58:30.333Z,99509.58
2023-11-02T04:02:33.806Z,99499.86
2023-11-02T04:06:20.006Z,99491.30
2023-11-02T04:14:43.028Z,99494.89
2023-11-02T04:18:33.459Z,99490.00
2023-11-02T04:22:23.840Z,99491.39
2023-11-02T04:26:14.879Z,99491.86
2023-11-02T05:13:30.989Z,99458.74
2023-11-02T05:21:11.297Z,99457.45
2023-11-02T05:25:03.138Z,99456.99
2023-11-02T06:03:29.408Z,99419.45
2023-11-02T06:07:18.881Z,99420.79
2023-11-02T06:11:09.015Z,99418.17
2023-11-02T06:19:32.351Z,99411.86
2023-11-02T06:23:24.458Z,99413.52
2023-11-02T07:05:37.673Z,99378.08
2023-11-02T07:09:19.692Z,99369.16
2023-11-02T07:13:09.003Z,99359.39
2023-11-02T07:16:52.896Z,99351.97
2023-11-02T07:20:46.680Z,99349.75
2023-11-02T07:24:39.139Z,99346.66
2023-11-02T07:28:32.165Z,99342.98
2023-11-02T07:47:57.202Z,99336.08
2023-11-02T07:51:39.154Z,99332.39
2023-11-02T07:55:28.466Z,99327.83
2023-11-02T07:59:23.166Z,99323.86
2023-11-02T08:03:12.250Z,99326.38
2023-11-02T08:35:26.985Z,99271.98
2023-11-02T08:39:11.457Z,99267.60
2023-11-02T08:43:01.785Z,99259.02
2023-11-02T08:46:51.719Z,99266.45
2023-11-02T09:02:38.067Z,99234.86
2023-11-02T09:06:29.771Z,99228.33
2023-11-02T09:10:19.122Z,99236.91
2023-11-02T09:14:08.617Z,99234.07
2023-11-02T09:29:48.643Z,99195.30
2023-11-02T09:33:38.076Z,99191.00
2023-11-02T09:37:27.492Z,99188.36
2023-11-02T09:44:00.305Z,99181.88
2023-11-02T09:46:28.655Z,99177.77
2023-11-02T09:48:56.972Z,99172.63
2023-11-02T09:51:25.731Z,99168.08
2023-11-02T09:53:54.056Z,99160.69
2023-11-02T09:56:22.536Z,99159.33
2023-11-02T09:58:51.342Z,99159.20
2023-11-02T10:01:19.991Z,99156.34
2023-11-02T10:03:48.834Z,99159.30
2023-11-02T10:06:17.840Z,99156.70
2023-11-02T10:08:46.100Z,99154.65
2023-11-02T10:11:15.821Z,99155.49
2023-11-02T10:13:45.335Z,99150.38
2023-11-02T10:16:13.667Z,99142.27
2023-11-02T10:18:42.228Z,99133.02
2023-11-02T10:21:12.663Z,99131.05
2023-11-02T10:29:52.370Z,99120.92
2023-11-02T10:33:48.558Z,99115.69
2023-11-02T10:37:18.076Z,99107.83
2023-11-02T10:40:41.183Z,99112.11
2023-11-02T10:44:34.265Z,99105.23
2023-11-02T10:48:26.306Z,99097.67
2023-11-02T10:52:17.342Z,99093.39
2023-11-02T11:31:51.568Z,99054.83
2023-11-02T11:35:57.073Z,99043.27
2023-11-02T11:39:46.757Z,99036.73
2023-11-02T11:46:46.569Z,99042.03
2023-11-02T11:50:19.213Z,99033.85
2023-11-02T11:53:59.437Z,99034.34
2023-11-02T12:01:48.609Z,99016.20
2023-11-02T12:05:37.129Z,99014.55
2023-11-02T12:09:06.274Z,99009.61
2023-11-02T12:12:44.638Z,99005.39
2023-11-02T12:16:18.528Z,98993.77
2023-11-02T12:19:53.886Z,98991.36
2023-11-02T12:23:32.040Z,98986.05
2023-11-02T12:26:35.562Z,98985.17
2023-11-02T12:34:31.009Z,98974.66
2023-11-02T12:37:46.217Z,98979.48
2023-11-02T12:41:06.358Z,98963.41
2023-11-02T12:44:10.069Z,98962.39
2023-11-02T12:47:02.169Z,98964.29
2023-11-02T12:50:01.196Z,98962.35
2023-11-02T12:53:11.262Z,98956.05
2023-11-02T12:56:12.774Z,98952.86
2023-11-02T12:58:44.750Z,98945.70
2023-11-02T13:01:36.171Z,98947.14
2023-11-02T13:04:35.630Z,98933.60
2023-11-02T13:07:42.454Z,98933.48
2023-11-02T13:10:46.686Z,98931.05
2023-11-02T13:13:40.269Z,98933.94
2023-11-02T13:17:22.353Z,98939.41
2023-11-02T13:20:51.787Z,98936.46
2023-11-02T13:24:33.740Z,98928.30
2023-11-02T13:28:07.552Z,98915.95
2023-11-02T13:31:33.153Z,98920.91
2023-11-02T13:34:45.637Z,98920.23
2023-11-02T13:37:53.584Z,98918.25
2023-11-02T13:41:27.410Z,98913.63
2023-11-02T13:45:05.893Z,98910.80
2023-11-02T13:48:56.752Z,98901.71
2023-11-02T13:52:36.366Z,98908.53
2023-11-02T13:56:18.136Z,98902.38
2023-11-02T13:59:55.907Z,98896.10
2023-11-02T14:03:18.263Z,98893.02
2023-11-02T14:06:54.126Z,98888.70
2023-11-02T14:10:28.538Z,98886.98
2023-11-02T14:14:00.753Z,98888.45
2023-11-02T14:21:04.749Z,98874.51
2023-11-02T14:24:42.675Z,98875.60
2023-11-02T14:49:00.708Z,98864.39
2023-11-02T14:52:53.205Z,98862.11
2023-11-02T14:56:43.695Z,98858.77
2023-11-02T15:04:37.055Z,98851.98
2023-11-02T15:08:25.961Z,98847.60
2023-11-02T15:12:14.144Z,98853.70
2023-11-02T15:35:36.463Z,98826.98
2023-11-02T15:39:29.399Z,98826.20
2023-11-02T15:43:34.926Z,98821.20
2023-11-02T15:47:26.216Z,98815.91
2023-11-02T15:54:45.484Z,98817.44
2023-11-02T16:02:20.666Z,98811.60
2023-11-02T16:06:10.089Z,98810.92
2023-11-02T16:09:52.037Z,98809.41
2023-11-02T16:13:42.418Z,98803.11
2023-11-02T16:17:32.283Z,98798.04
2023-11-02T16:21:24.686Z,98799.56
2023-11-02T16:25:17.708Z,98796.71
2023-11-02T16:40:43.782Z,98778.49
2023-11-02T16:45:16.109Z,98777.14
2023-11-02T16:49:07.148Z,98772.59
2023-11-02T16:52:38.998Z,98754.48
2023-11-02T16:56:11.156Z,98735.98
2023-11-02T16:59:51.184Z,98726.33
2023-11-02T17:03:14.435Z,98722.42
2023-11-02T17:07:04.249Z,98715.61
2023-11-02T17:10:52.707Z,98712.70
2023-11-02T17:14:34.546Z,98705.77
2023-11-02T17:18:20.062Z,98703.45
2023-11-02T17:34:01.613Z,98698.26
2023-11-02T17:37:52.742Z,98693.90
2023-11-02T17:41:42.142Z,98688.62
2023-11-02T17:45:26.201Z,98693.60
2023-11-02T17:49:03.183Z,98686.80
2023-11-02T17:52:54.225Z,98678.48
2023-11-02T18:23:43.115Z,98657.58
2023-11-02T18:27:34.171Z,98656.36
2023-11-02T18:31:26.175Z,98656.41
2023-11-02T18:35:16.600Z,98651.69
2023-11-02T18:39:05.729Z,98652.40
2023-11-02T18:42:56.639Z,98651.65
2023-11-02T19:06:37.387Z,98636.31
2023-11-02T19:10:27.283Z,98637.96
2023-11-02T19:14:10.140Z,98641.55
2023-11-02T19:18:00.371Z,98639.81
2023-11-02T19:44:26.506Z,98629.20
2023-11-02T19:48:16.944Z,98631.73
2023-11-02T19:52:06.770Z,98623.18
2023-11-02T19:55:36.402Z,98622.52
2023-11-02T19:59:13.869Z,98612.14
2023-11-02T20:02:57.008Z,98620.48
2023-11-02T20:25:28.628Z,98608.88
2023-11-02T20:29:18.260Z,98605.21
2023-11-02T20:33:09.085Z,98609.38
2023-11-02T20:36:49.747Z,98607.87
